createdAt,value
2023-03-12T00:04:18.918Z,-0.06
2023-03-12T00:19:22.445Z,-0.14
2023-03-12T00:34:25.390Z,-0.04
2023-03-12T00:49:28.662Z,-0.15
2023-03-12T01:04:31.713Z,-0.18
2023-03-12T01:19:34.811Z,-0.01
2023-03-12T01:34:37.429Z,0.02
2023-03-12T01:49:40.073Z,0.25
2023-03-12T02:04:45.408Z,0.34
2023-03-12T02:20:07.738Z,0.39
2023-03-12T02:35:11.218Z,0.40
2023-03-12T02:50:14.123Z,0.25
2023-03-12T03:05:16.796Z,0.37
2023-03-12T03:20:20.947Z,0.47
2023-03-12T03:35:23.715Z,0.50
2023-03-12T03:50:26.236Z,0.54
2023-03-12T04:05:29.139Z,0.39
2023-03-12T04:20:32.826Z,0.32
2023-03-12T04:35:35.288Z,0.51
2023-03-12T04:50:39.245Z,0.44
2023-03-12T05:05:41.856Z,0.51
2023-03-12T05:20:45.098Z,0.38
2023-03-12T05:35:47.948Z,0.21
2023-03-12T05:50:50.581Z,0.55
2023-03-12T06:05:55.674Z,0.60
2023-03-12T06:21:21.624Z,0.95
2023-03-12T06:36:39.277Z,1.12
2023-03-12T06:51:42.096Z,1.52
2023-03-12T07:06:59.871Z,2.05
2023-03-12T07:22:02.747Z,2.65
2023-03-12T07:37:05.642Z,3.08
2023-03-12T07:52:11.199Z,3.39
2023-03-12T08:07:17.409Z,3.53
2023-03-12T08:37:47.549Z,3.84
2023-03-12T08:52:51.711Z,3.80
2023-03-12T09:08:04.202Z,3.94
2023-03-12T09:23:10.088Z,4.11
2023-03-12T09:38:31.212Z,3.90
2023-03-12T09:53:41.671Z,4.16
2023-03-12T10:09:39.517Z,4.31
2023-03-12T10:24:52.629Z,4.86
2023-03-12T10:39:56.257Z,5.32
2023-03-12T10:55:26.096Z,5.23
2023-03-12T11:10:47.774Z,5.29
2023-03-12T11:26:15.905Z,5.39
2023-03-12T11:42:00.120Z,5.43
2023-03-12T12:10:46.156Z,5.90
2023-03-12T12:26:13.954Z,6.12
2023-03-12T12:41:24.195Z,6.33
2023-03-12T12:56:38.374Z,6.43
2023-03-12T13:11:48.843Z,6.37
2023-03-12T13:27:18.735Z,6.58
2023-03-12T13:42:25.306Z,6.55
2023-03-12T13:57:43.673Z,6.21
2023-03-12T14:13:24.820Z,6.07
2023-03-12T14:28:32.858Z,5.80
2023-03-12T14:43:37.664Z,5.71
2023-03-12T14:58:48.718Z,5.39
2023-03-12T15:13:56.895Z,5.21
2023-03-12T15:29:25.939Z,5.10
2023-03-12T15:44:56.906Z,4.83
2023-03-12T16:00:25.234Z,4.73
2023-03-12T16:15:34.217Z,4.80
2023-03-12T16:30:37.321Z,4.69
2023-03-12T16:45:47.352Z,4.49
2023-03-12T17:00:54.469Z,4.36
2023-03-12T17:16:00.513Z,4.18
2023-03-12T17:31:27.007Z,4.09
2023-03-12T17:46:34.120Z,4.31
2023-03-12T18:01:42.056Z,4.34
2023-03-12T18:16:52.088Z,4.12
2023-03-12T18:31:59.797Z,3.84
2023-03-12T18:47:09.068Z,3.58
2023-03-12T19:02:17.063Z,3.61
2023-03-12T19:17:25.528Z,3.82
2023-03-12T19:32:44.700Z,3.73
2023-03-12T19:47:52.842Z,3.61
2023-03-12T20:02:57.062Z,3.47
2023-03-12T20:18:00.296Z,3.34
2023-03-12T20:33:18.186Z,3.34
2023-03-12T20:48:22.115Z,3.51
2023-03-12T21:03:25.342Z,3.45
2023-03-12T21:18:28.615Z,3.32
2023-03-12T21:33:31.577Z,3.02
2023-03-12T21:48:49.658Z,2.58
2023-03-12T22:03:52.788Z,2.38
2023-03-12T22:18:57.469Z,2.40
2023-03-12T22:34:00.501Z,2.45
2023-03-12T22:49:05.320Z,2.48
2023-03-12T23:04:08.294Z,2.19
2023-03-12T23:19:11.403Z,2.11
2023-03-12T23:34:14.730Z,2.12
2023-03-12T23:49:18.717Z,2.00
